Terminal Aerodrome Forecast
Issued by NWS

Home | Current Version | Previous Version | Text Only | Print | Product List | Glossary On
Versions: 1 2 3 4 5 6 7 8 9 10 11 12 13 14 15 16
970
FTUS45 KMSO 112323
TAFSMN
TAF
KSMN 112323Z 1200/1224 00000KT P6SM VCSH BKN100
     FM120300 00000KT 5SM -SHSN BR OVC030
     FM120600 00000KT P6SM VCSH OVC050
      AMD LTD TO CLD VIS AND WIND=

USA.gov is the U.S. government's official web portal to all federal, state and local government web resources and services.